Billington, United Kingdom
Current Conditions -  °F | °C
As of 5:50 PM on Friday 28 Nov 2014 (Local Time) from EGNO Reporting Station
Broken Clouds Broken Clouds  
Wind Chill: 52°   Ceiling: 1200
Heat Index: 52°   Visibility: 6mi
Dew Point: 50°   Wind: 7mph
Humidity: 94%   Direction: 90°E
Pressure: 29.74"   Gusts: NA
Location:  53.82°N, 2.42°W
Report Text: EGNO 281750Z 09006KT 9999 BKN012 11/10 Q1007
Loading
Personal Weather Stations






























Interactive Weather Map New forecast layout! Learn more

10-Day Weather Forecast

Advertisements
Track Severe Weather on mobile